createdAt,value
2022-08-26T00:01:10.732Z,48.20
2022-08-26T00:03:37.358Z,48.21
2022-08-26T00:06:04.049Z,48.70
2022-08-26T00:08:30.646Z,48.54
2022-08-26T00:10:57.201Z,49.21
2022-08-26T00:13:26.465Z,49.99
2022-08-26T00:15:53.702Z,49.56
2022-08-26T00:18:22.660Z,49.93
2022-08-26T00:20:49.717Z,50.15
2022-08-26T00:23:17.839Z,49.91
2022-08-26T00:25:44.470Z,50.76
2022-08-26T00:28:11.201Z,51.21
2022-08-26T00:30:38.521Z,51.17
2022-08-26T00:33:06.277Z,50.42
2022-08-26T00:35:34.936Z,51.51
2022-08-26T00:38:02.773Z,50.87
2022-08-26T00:40:31.633Z,50.62
2022-08-26T00:42:59.327Z,51.64
2022-08-26T00:45:26.177Z,51.18
2022-08-26T00:48:01.227Z,51.38
2022-08-26T00:50:33.345Z,51.73
2022-08-26T00:53:02.268Z,51.88
2022-08-26T00:55:37.942Z,51.80
2022-08-26T00:58:05.786Z,51.89
2022-08-26T01:00:32.613Z,51.08
2022-08-26T01:03:00.946Z,50.99
2022-08-26T01:05:28.397Z,50.37
2022-08-26T01:07:57.136Z,50.50
2022-08-26T01:10:26.012Z,49.95
2022-08-26T01:12:55.677Z,50.03
2022-08-26T01:15:24.820Z,49.90
2022-08-26T01:17:51.421Z,49.52
2022-08-26T01:20:38.097Z,49.97
2022-08-26T01:23:06.942Z,49.94
2022-08-26T01:25:37.800Z,49.27
2022-08-26T01:28:07.940Z,49.74
2022-08-26T01:30:35.461Z,50.17
2022-08-26T01:33:03.853Z,50.79
2022-08-26T01:35:30.754Z,51.12
2022-08-26T01:37:57.577Z,51.19
2022-08-26T01:40:26.382Z,51.87
2022-08-26T01:42:54.224Z,51.81
2022-08-26T01:45:25.816Z,52.95
2022-08-26T01:47:56.925Z,52.94
2022-08-26T01:50:34.966Z,52.88
2022-08-26T01:53:07.509Z,53.17
2022-08-26T01:55:37.034Z,52.98
2022-08-26T01:58:05.618Z,53.75
2022-08-26T02:00:33.650Z,53.25
2022-08-26T02:03:18.494Z,53.65
2022-08-26T02:05:46.576Z,53.39
2022-08-26T02:08:20.603Z,53.78
2022-08-26T02:10:51.836Z,53.99
2022-08-26T02:13:21.678Z,54.11
2022-08-26T02:15:49.447Z,54.05
2022-08-26T02:18:16.174Z,54.41
2022-08-26T02:20:43.088Z,53.69
2022-08-26T02:23:09.970Z,53.59
2022-08-26T02:25:55.534Z,52.93
2022-08-26T02:28:22.210Z,54.19
2022-08-26T02:30:55.505Z,52.44
2022-08-26T02:33:22.266Z,51.40
2022-08-26T02:35:48.904Z,53.42
2022-08-26T02:38:15.455Z,50.73
2022-08-26T02:40:43.927Z,49.96
2022-08-26T02:43:12.616Z,50.13
2022-08-26T02:45:40.346Z,50.13
2022-08-26T02:48:10.294Z,50.97
2022-08-26T02:50:37.317Z,52.37
2022-08-26T02:53:04.691Z,52.40
2022-08-26T02:55:32.629Z,52.80
2022-08-26T02:58:00.157Z,53.29
2022-08-26T03:00:27.610Z,52.88
2022-08-26T03:02:54.596Z,53.36
2022-08-26T03:05:22.309Z,54.21
2022-08-26T03:07:50.788Z,53.57
2022-08-26T03:10:17.531Z,53.21
2022-08-26T03:12:47.360Z,53.97
2022-08-26T03:15:17.784Z,53.73
2022-08-26T03:17:46.538Z,53.78
2022-08-26T03:20:13.653Z,54.62
2022-08-26T03:22:42.230Z,53.79
2022-08-26T03:25:09.677Z,53.80
2022-08-26T03:27:36.384Z,53.01
2022-08-26T03:30:35.987Z,52.97
2022-08-26T03:33:03.406Z,52.42
2022-08-26T03:35:31.022Z,52.50
2022-08-26T03:37:57.621Z,52.50
2022-08-26T03:40:24.624Z,52.77
2022-08-26T03:42:55.675Z,52.17
2022-08-26T03:45:22.345Z,52.04
2022-08-26T03:47:48.903Z,52.71
2022-08-26T03:50:17.559Z,52.22
2022-08-26T03:52:49.940Z,51.30
2022-08-26T03:55:17.546Z,50.66
2022-08-26T03:57:44.354Z,50.21
2022-08-26T04:00:14.928Z,50.79
2022-08-26T04:02:46.208Z,50.99
2022-08-26T04:05:13.777Z,50.92
2022-08-26T04:07:41.159Z,51.43
2022-08-26T04:10:08.490Z,51.19
2022-08-26T04:12:37.512Z,50.88
2022-08-26T04:15:08.252Z,51.44
2022-08-26T04:17:34.911Z,51.61
2022-08-26T04:20:02.186Z,51.53
2022-08-26T04:22:29.383Z,51.43
2022-08-26T04:24:56.041Z,51.95
2022-08-26T04:27:22.716Z,52.12
2022-08-26T04:29:52.444Z,52.14
2022-08-26T04:32:21.668Z,52.14
2022-08-26T04:34:48.224Z,51.28
2022-08-26T04:37:15.699Z,50.33
2022-08-26T04:39:42.312Z,50.22
2022-08-26T04:42:11.048Z,50.18
2022-08-26T04:44:37.905Z,50.40
2022-08-26T04:47:06.137Z,50.61
2022-08-26T04:49:35.184Z,50.60
2022-08-26T04:52:02.554Z,50.73
2022-08-26T04:54:29.137Z,51.11
2022-08-26T04:56:56.068Z,50.83
2022-08-26T04:59:22.824Z,51.40
2022-08-26T05:01:52.391Z,51.42
2022-08-26T05:04:19.759Z,51.25
2022-08-26T05:06:47.195Z,51.25
2022-08-26T05:09:15.272Z,51.33
2022-08-26T05:11:42.012Z,50.29
2022-08-26T05:14:08.661Z,50.73
2022-08-26T05:16:35.289Z,51.05
2022-08-26T05:19:03.634Z,51.38
2022-08-26T05:21:30.252Z,51.63
2022-08-26T05:23:57.225Z,51.80
2022-08-26T05:26:24.821Z,52.00
2022-08-26T05:28:54.935Z,51.75
2022-08-26T05:31:31.638Z,51.74
2022-08-26T05:33:59.010Z,51.11
2022-08-26T05:36:27.411Z,51.15
2022-08-26T05:38:55.280Z,51.22
2022-08-26T05:41:25.024Z,51.12
2022-08-26T05:43:53.174Z,50.96
2022-08-26T05:46:20.261Z,51.31
2022-08-26T05:48:47.374Z,51.76
2022-08-26T05:51:14.449Z,52.37
2022-08-26T05:53:43.771Z,52.74
2022-08-26T05:56:24.889Z,52.51
2022-08-26T05:58:51.996Z,52.37
2022-08-26T06:01:20.437Z,51.97
2022-08-26T06:03:50.095Z,51.69
2022-08-26T06:06:35.911Z,51.70
2022-08-26T06:09:04.498Z,51.68
2022-08-26T06:11:32.651Z,50.80
2022-08-26T06:14:03.964Z,50.90
2022-08-26T06:16:31.478Z,50.24
2022-08-26T06:18:58.050Z,49.96
2022-08-26T06:21:26.831Z,49.99
2022-08-26T06:24:13.957Z,49.97
2022-08-26T06:26:40.898Z,49.78
2022-08-26T06:29:09.913Z,49.98
2022-08-26T06:31:36.729Z,49.78
2022-08-26T06:34:09.895Z,50.29
2022-08-26T06:36:38.028Z,50.61
2022-08-26T06:39:06.874Z,50.11
2022-08-26T06:41:34.587Z,50.49
2022-08-26T06:44:01.617Z,50.60
2022-08-26T06:46:29.698Z,50.96
2022-08-26T06:48:58.353Z,49.58
2022-08-26T06:51:26.726Z,49.78
2022-08-26T06:53:54.731Z,49.43
2022-08-26T06:56:25.430Z,49.51
2022-08-26T06:58:52.512Z,50.29
2022-08-26T07:01:24.453Z,48.96
2022-08-26T07:03:51.810Z,49.57
2022-08-26T07:06:21.234Z,49.90
2022-08-26T07:08:48.273Z,49.93
2022-08-26T07:11:15.103Z,49.72
2022-08-26T07:13:42.302Z,50.13
2022-08-26T07:16:14.457Z,49.80
2022-08-26T07:18:42.249Z,49.96
2022-08-26T07:21:13.584Z,48.88
2022-08-26T07:23:41.388Z,48.79
2022-08-26T07:26:10.408Z,49.06
2022-08-26T07:28:37.941Z,48.91
2022-08-26T07:31:05.951Z,48.98
2022-08-26T07:33:36.818Z,48.76
2022-08-26T07:36:04.281Z,48.37
2022-08-26T07:38:30.905Z,48.74
2022-08-26T07:41:01.919Z,48.06
2022-08-26T07:43:29.273Z,48.19
2022-08-26T07:45:56.041Z,48.09
2022-08-26T07:48:22.615Z,48.05
2022-08-26T07:50:50.515Z,47.61
2022-08-26T07:53:18.223Z,47.93
2022-08-26T07:55:46.306Z,47.66
2022-08-26T07:58:12.933Z,47.48
2022-08-26T08:00:39.586Z,48.04
2022-08-26T08:03:06.494Z,47.51
2022-08-26T08:05:33.917Z,46.95
2022-08-26T08:08:26.293Z,47.55
2022-08-26T08:10:48.921Z,47.22
2022-08-26T08:13:15.801Z,47.93
2022-08-26T08:15:42.547Z,47.02
2022-08-26T08:18:15.391Z,47.51
2022-08-26T08:20:47.662Z,48.72
2022-08-26T08:23:26.062Z,46.96
2022-08-26T08:26:00.715Z,47.63
2022-08-26T08:28:27.371Z,46.31
2022-08-26T08:30:54.117Z,47.01
2022-08-26T08:33:21.089Z,46.48
2022-08-26T08:35:48.562Z,45.91
2022-08-26T08:38:15.484Z,46.74
2022-08-26T08:40:44.448Z,46.25
2022-08-26T08:43:13.803Z,46.48
2022-08-26T08:45:44.777Z,48.10
2022-08-26T08:48:20.806Z,49.30
2022-08-26T08:50:55.109Z,49.21
2022-08-26T08:53:24.592Z,49.87
2022-08-26T08:56:07.064Z,49.38
2022-08-26T08:58:53.882Z,48.35
2022-08-26T09:01:39.634Z,47.20
2022-08-26T09:04:26.516Z,47.50
2022-08-26T09:06:55.485Z,47.52
2022-08-26T09:09:40.456Z,48.42
2022-08-26T09:12:11.358Z,49.23
2022-08-26T09:14:38.603Z,48.81
2022-08-26T09:17:06.293Z,49.13
2022-08-26T09:19:40.458Z,48.92
2022-08-26T09:22:09.399Z,49.13
2022-08-26T09:24:41.796Z,48.81
2022-08-26T09:27:34.670Z,46.87
2022-08-26T09:30:04.884Z,48.96
2022-08-26T09:32:32.256Z,47.71
2022-08-26T09:35:01.015Z,48.20
2022-08-26T09:37:42.212Z,47.60
2022-08-26T09:40:17.989Z,45.00
2022-08-26T09:42:44.776Z,45.99
2022-08-26T09:45:13.554Z,46.87
2022-08-26T09:47:52.600Z,48.29
2022-08-26T09:50:29.139Z,43.22
2022-08-26T09:53:14.639Z,46.00
2022-08-26T09:55:42.494Z,43.75
2022-08-26T09:58:13.660Z,44.39
2022-08-26T10:00:52.997Z,46.81
2022-08-26T10:03:28.070Z,44.72
2022-08-26T10:05:58.581Z,44.09
2022-08-26T10:08:37.759Z,47.00
2022-08-26T10:11:11.638Z,46.75
2022-08-26T10:13:42.370Z,47.17
2022-08-26T10:16:17.921Z,42.83
2022-08-26T10:19:00.981Z,46.52
2022-08-26T10:21:32.972Z,46.35
2022-08-26T10:24:02.111Z,47.10
2022-08-26T10:26:48.699Z,46.50
2022-08-26T10:29:23.344Z,46.98
2022-08-26T10:32:03.656Z,47.28
2022-08-26T10:34:31.825Z,47.14
2022-08-26T10:37:15.927Z,47.13
2022-08-26T10:39:58.623Z,44.24
2022-08-26T10:42:44.545Z,45.02
2022-08-26T10:45:15.451Z,46.41
2022-08-26T10:47:42.228Z,43.16
2022-08-26T10:50:09.097Z,45.76
2022-08-26T10:52:42.621Z,46.44
2022-08-26T10:55:18.128Z,46.65
2022-08-26T10:57:57.576Z,46.47
2022-08-26T11:00:56.040Z,46.29
2022-08-26T11:03:23.151Z,47.24
2022-08-26T11:06:25.166Z,42.77
2022-08-26T11:08:53.239Z,45.51
2022-08-26T11:11:38.360Z,46.58
2022-08-26T11:14:09.808Z,44.71
2022-08-26T11:16:43.292Z,46.62
2022-08-26T11:19:12.557Z,43.96
2022-08-26T11:21:44.534Z,46.23
2022-08-26T11:24:31.956Z,47.00
2022-08-26T11:26:58.559Z,47.07
2022-08-26T11:29:51.767Z,47.22
2022-08-26T11:32:34.559Z,46.75
2022-08-26T11:35:04.927Z,46.62
2022-08-26T11:37:36.079Z,46.98
2022-08-26T11:40:09.202Z,47.07
2022-08-26T11:42:49.267Z,45.94
2022-08-26T11:45:15.905Z,45.95
2022-08-26T11:47:42.705Z,46.83
2022-08-26T11:50:23.656Z,46.00
2022-08-26T11:52:51.541Z,46.68
2022-08-26T11:55:23.216Z,46.45
2022-08-26T11:57:53.260Z,45.57
2022-08-26T12:00:24.900Z,45.36
2022-08-26T12:02:52.489Z,46.47
2022-08-26T12:05:36.715Z,45.85
2022-08-26T12:08:08.996Z,43.07
2022-08-26T12:10:42.313Z,44.51
2022-08-26T12:13:29.666Z,45.43
2022-08-26T12:15:58.926Z,45.79
2022-08-26T12:18:36.106Z,45.81
2022-08-26T12:21:13.187Z,45.80
2022-08-26T12:23:43.404Z,45.19
2022-08-26T12:26:22.599Z,45.99
2022-08-26T12:28:53.110Z,46.08
2022-08-26T12:31:36.882Z,44.31
2022-08-26T12:34:05.670Z,45.40
2022-08-26T12:36:39.041Z,44.70
2022-08-26T12:39:29.200Z,45.37
2022-08-26T12:41:57.018Z,45.03
2022-08-26T12:44:33.589Z,44.63
2022-08-26T12:47:05.407Z,46.31
2022-08-26T12:49:32.332Z,46.45
2022-08-26T12:51:59.055Z,46.33
2022-08-26T12:54:45.917Z,46.46
2022-08-26T12:57:12.805Z,46.28
2022-08-26T12:59:39.526Z,46.53
2022-08-26T13:02:09.332Z,46.66
2022-08-26T13:04:41.187Z,47.29
2022-08-26T13:07:22.323Z,46.95
2022-08-26T13:09:58.879Z,47.43
2022-08-26T13:12:25.496Z,47.79
2022-08-26T13:14:52.113Z,47.38
2022-08-26T13:17:31.134Z,48.42
2022-08-26T13:20:04.098Z,47.95
2022-08-26T13:22:34.420Z,48.44
2022-08-26T13:25:04.386Z,47.33
2022-08-26T13:27:33.813Z,47.43
2022-08-26T13:30:09.593Z,46.15
2022-08-26T13:32:42.742Z,45.47
2022-08-26T13:35:13.092Z,44.93
2022-08-26T13:37:39.713Z,44.94
2022-08-26T13:40:17.695Z,45.26
2022-08-26T13:42:50.394Z,45.08
2022-08-26T13:45:20.179Z,44.99
2022-08-26T13:47:46.906Z,45.73
2022-08-26T13:50:19.233Z,45.48
2022-08-26T13:52:46.433Z,44.97
2022-08-26T13:55:15.790Z,45.52
2022-08-26T13:57:45.582Z,44.92
2022-08-26T14:00:12.532Z,45.41
2022-08-26T14:02:39.292Z,45.83
2022-08-26T14:05:06.335Z,45.70
2022-08-26T14:07:39.306Z,46.57
2022-08-26T14:10:09.243Z,46.88
2022-08-26T14:12:50.798Z,47.55
2022-08-26T14:15:18.977Z,49.59
2022-08-26T14:18:12.286Z,49.93
2022-08-26T14:20:51.574Z,49.86
2022-08-26T14:23:19.450Z,49.97
2022-08-26T14:25:48.777Z,49.37
2022-08-26T14:28:30.357Z,49.32
2022-08-26T14:31:00.690Z,50.27
2022-08-26T14:33:34.665Z,50.98
2022-08-26T14:36:26.493Z,52.27
2022-08-26T14:39:28.251Z,50.98
2022-08-26T14:42:01.230Z,51.90
2022-08-26T14:44:29.760Z,52.02
2022-08-26T14:46:56.482Z,52.04
2022-08-26T14:49:23.550Z,51.90
2022-08-26T14:51:59.470Z,51.50
2022-08-26T14:54:41.216Z,52.12
2022-08-26T14:57:14.584Z,50.66
2022-08-26T14:59:50.051Z,51.62
2022-08-26T15:02:32.544Z,52.43
2022-08-26T15:05:00.404Z,52.16
2022-08-26T15:07:32.888Z,52.60
2022-08-26T15:09:59.494Z,52.23
2022-08-26T15:12:26.247Z,53.81
2022-08-26T15:14:58.874Z,53.70
2022-08-26T15:17:26.387Z,52.36
2022-08-26T15:19:55.821Z,52.80
2022-08-26T15:22:37.695Z,53.02
2022-08-26T15:25:13.188Z,53.41
2022-08-26T15:27:45.992Z,53.52
2022-08-26T15:30:28.256Z,54.37
2022-08-26T15:32:54.963Z,53.81
2022-08-26T15:35:21.582Z,54.51
2022-08-26T15:40:22.217Z,56.34
2022-08-26T15:42:54.345Z,55.87
2022-08-26T15:45:26.925Z,57.11
2022-08-26T15:48:01.255Z,55.69
2022-08-26T15:50:45.174Z,54.74
2022-08-26T15:53:37.173Z,55.07
2022-08-26T15:56:24.845Z,55.58
2022-08-26T15:59:04.657Z,55.52
2022-08-26T16:04:32.188Z,55.72
2022-08-26T16:07:01.919Z,55.43
2022-08-26T16:09:30.966Z,55.55
2022-08-26T16:11:57.828Z,55.87
2022-08-26T16:14:40.151Z,56.14
2022-08-26T16:17:23.600Z,55.07
2022-08-26T16:20:01.370Z,55.53
2022-08-26T16:22:46.072Z,55.94
2022-08-26T16:25:21.489Z,57.12
2022-08-26T16:27:48.322Z,56.99
2022-08-26T16:30:25.093Z,57.96
2022-08-26T16:32:58.205Z,57.71
2022-08-26T16:35:28.104Z,59.07
2022-08-26T16:38:02.639Z,57.94
2022-08-26T16:40:29.488Z,56.08
2022-08-26T16:42:56.323Z,56.49
2022-08-26T16:45:23.597Z,56.58
2022-08-26T16:48:05.388Z,56.79
2022-08-26T16:50:32.238Z,57.57
2022-08-26T16:52:59.177Z,57.17
2022-08-26T16:55:31.818Z,57.37
2022-08-26T16:57:58.456Z,58.22
2022-08-26T17:00:29.146Z,58.02
2022-08-26T17:02:59.754Z,57.46
2022-08-26T17:05:26.660Z,57.79
2022-08-26T17:07:54.158Z,58.07
2022-08-26T17:10:21.632Z,57.56
2022-08-26T17:12:54.302Z,56.66
2022-08-26T17:15:32.663Z,57.01
2022-08-26T17:17:59.341Z,58.15
2022-08-26T17:20:26.558Z,58.56
2022-08-26T17:22:57.165Z,59.21
2022-08-26T17:25:31.756Z,59.31
2022-08-26T17:28:01.650Z,59.22
2022-08-26T17:30:33.973Z,59.68
2022-08-26T17:33:11.056Z,59.93
2022-08-26T17:35:43.447Z,59.36
2022-08-26T17:38:10.177Z,58.56
2022-08-26T17:40:39.754Z,59.24
2022-08-26T17:43:12.327Z,58.97
2022-08-26T17:45:43.446Z,59.12
2022-08-26T17:48:11.279Z,58.93
2022-08-26T17:50:43.577Z,58.67
2022-08-26T17:53:19.360Z,58.08
2022-08-26T17:55:46.825Z,55.95
2022-08-26T17:58:14.772Z,55.62
2022-08-26T18:00:46.447Z,51.93
2022-08-26T18:03:18.534Z,53.06
2022-08-26T18:05:49.395Z,51.43
2022-08-26T18:08:27.767Z,51.26
2022-08-26T18:10:54.380Z,52.12
2022-08-26T18:13:28.062Z,51.95
2022-08-26T18:15:57.523Z,51.84
2022-08-26T18:18:24.151Z,52.22
2022-08-26T18:21:01.720Z,52.03
2022-08-26T18:23:28.656Z,51.52
2022-08-26T18:26:04.076Z,51.49
2022-08-26T18:28:30.660Z,51.80
2022-08-26T18:30:58.966Z,51.91
2022-08-26T18:33:27.657Z,51.69
2022-08-26T18:35:57.139Z,51.64
2022-08-26T18:38:29.904Z,51.72
2022-08-26T18:41:04.048Z,51.87
2022-08-26T18:43:33.455Z,52.00
2022-08-26T18:46:06.915Z,51.20
2022-08-26T18:48:40.228Z,51.61
2022-08-26T18:51:07.146Z,50.72
2022-08-26T18:53:39.165Z,50.86
2022-08-26T18:56:08.744Z,51.38
2022-08-26T18:58:38.023Z,50.69
2022-08-26T19:01:04.763Z,49.53
2022-08-26T19:03:31.418Z,50.54
2022-08-26T19:05:58.130Z,49.46
2022-08-26T19:08:24.750Z,49.55
2022-08-26T19:10:52.198Z,49.24
2022-08-26T19:13:19.866Z,50.87
2022-08-26T19:15:47.781Z,49.53
2022-08-26T19:18:27.530Z,49.98
2022-08-26T19:21:11.915Z,48.83
2022-08-26T19:23:50.598Z,47.57
2022-08-26T19:26:17.664Z,47.49
2022-08-26T19:28:53.737Z,48.55
2022-08-26T19:34:06.720Z,50.28
2022-08-26T19:36:33.894Z,50.74
2022-08-26T19:39:03.193Z,49.64
2022-08-26T19:41:41.552Z,50.22
2022-08-26T19:44:38.156Z,47.43
2022-08-26T19:47:22.721Z,48.77
2022-08-26T19:50:11.313Z,47.64
2022-08-26T19:52:52.041Z,47.41
2022-08-26T19:55:58.209Z,47.85
2022-08-26T19:58:48.403Z,47.91
2022-08-26T20:01:15.514Z,47.13
2022-08-26T20:03:48.523Z,48.74
2022-08-26T20:06:16.348Z,47.66
2022-08-26T20:08:52.133Z,48.63
2022-08-26T20:11:23.361Z,47.96
2022-08-26T20:14:13.197Z,49.23
2022-08-26T20:16:45.613Z,48.90
2022-08-26T20:19:32.493Z,50.19
2022-08-26T20:22:02.171Z,51.56
2022-08-26T20:24:29.737Z,49.40
2022-08-26T20:26:56.372Z,50.04
2022-08-26T20:29:23.015Z,49.67
2022-08-26T20:31:49.736Z,49.07
2022-08-26T20:34:19.779Z,49.41
2022-08-26T20:36:47.315Z,49.85
2022-08-26T20:39:31.692Z,52.12
2022-08-26T20:41:58.364Z,52.03
2022-08-26T20:44:28.117Z,52.61
2022-08-26T20:46:55.392Z,50.16
2022-08-26T20:49:22.323Z,50.01
2022-08-26T20:51:51.961Z,50.30
2022-08-26T20:54:28.272Z,50.48
2022-08-26T20:56:58.684Z,50.25
2022-08-26T20:59:28.332Z,50.06
2022-08-26T21:02:13.556Z,50.15
2022-08-26T21:04:42.526Z,50.33
2022-08-26T21:07:09.131Z,50.61
2022-08-26T21:09:38.524Z,50.14
2022-08-26T21:12:10.926Z,50.11
2022-08-26T21:14:45.667Z,50.06
2022-08-26T21:17:24.510Z,49.90
2022-08-26T21:20:12.469Z,49.90
2022-08-26T21:22:47.954Z,50.39
2022-08-26T21:25:14.564Z,50.13
2022-08-26T21:27:41.186Z,50.63
2022-08-26T21:30:14.332Z,50.18
2022-08-26T21:32:43.955Z,49.80
2022-08-26T21:35:28.163Z,50.07
2022-08-26T21:37:57.877Z,49.99
2022-08-26T21:40:24.491Z,49.71
2022-08-26T21:42:59.853Z,49.94
2022-08-26T21:45:29.214Z,49.90
2022-08-26T21:48:04.613Z,50.00
2022-08-26T21:50:31.311Z,49.81
2022-08-26T21:52:57.910Z,49.88
2022-08-26T21:55:24.554Z,49.99
2022-08-26T21:57:56.707Z,49.87
2022-08-26T22:00:26.460Z,49.86
2022-08-26T22:03:03.847Z,49.89
2022-08-26T22:05:30.483Z,49.96
2022-08-26T22:07:59.696Z,50.11
2022-08-26T22:10:35.255Z,50.33
2022-08-26T22:13:04.750Z,50.16
2022-08-26T22:15:35.594Z,50.27
2022-08-26T22:18:09.117Z,50.21
2022-08-26T22:20:39.128Z,50.27
2022-08-26T22:23:11.873Z,50.70
2022-08-26T22:25:39.074Z,50.83
2022-08-26T22:28:25.282Z,51.73
2022-08-26T22:31:00.643Z,51.78
2022-08-26T22:33:36.315Z,51.90
2022-08-26T22:36:06.135Z,52.00
2022-08-26T22:38:35.741Z,52.00
2022-08-26T22:41:06.576Z,52.40
2022-08-26T22:43:43.832Z,52.28
2022-08-26T22:46:26.406Z,52.70
2022-08-26T22:49:01.656Z,52.72
2022-08-26T22:51:31.942Z,52.90
2022-08-26T22:54:26.056Z,52.85
2022-08-26T22:56:54.959Z,53.00
2022-08-26T22:59:21.615Z,53.04
2022-08-26T23:02:08.675Z,53.16
2022-08-26T23:04:44.692Z,53.11
2022-08-26T23:07:11.328Z,53.21
2022-08-26T23:09:50.002Z,53.31
2022-08-26T23:12:16.643Z,53.37
2022-08-26T23:14:44.087Z,53.52
2022-08-26T23:17:11.804Z,53.54
2022-08-26T23:19:40.915Z,53.29
2022-08-26T23:22:07.642Z,53.04
2022-08-26T23:24:40.318Z,53.39
2022-08-26T23:27:06.915Z,53.50
2022-08-26T23:29:43.904Z,53.51
2022-08-26T23:32:19.818Z,53.66
2022-08-26T23:35:03.281Z,53.97
2022-08-26T23:37:35.855Z,53.90
2022-08-26T23:40:25.074Z,54.29
2022-08-26T23:42:52.658Z,54.42
2022-08-26T23:45:34.355Z,54.60
2022-08-26T23:48:07.031Z,54.52
2022-08-26T23:50:58.416Z,54.60
2022-08-26T23:53:24.998Z,54.98
2022-08-26T23:55:52.374Z,57.00
